Pagina principale
METAR-TAF:

METAR-TAF

Aeroporti :

Chongqing, Cina

latitudine: 29-31N, longitudine: 106-29E, altezza: 351 m

Osservazione

Il bollettino è stato emesso 28 minuti fa, alle 19:00 UTC
Vento 4 kt da sud/sud-est
Temperature 29°C
Umidità 79%
Pressione 1003 hPa
Visibilità 10 km o più
nessuna nube inferiore a 1500 m e nessun cumulonembo

METAR: ZUCK 171900Z 16002MPS CAVOK 29/25 Q1003 NOSIG

Ora: 03:28 (19:28 UTC)

Previsione

Il bollettino è stato emesso 4 ore e 25 minuti fa, alle 15:03 UTC
Previsione valida dal 17 alle 18 UTC al 18 alle 18 UTC
Vento 6 kt da nord/nord-est
Visibilità: 6000 m
Nubi sparse ad un'altezza di 4000 ft

TAF: ZUCK 171503Z 1718/1818 02003MPS 6000 SCT040 TX38/1808Z TN29/1721Z

Osservazioni e previsioni meteorologiche di più di 4000 aeroporti (messaggi METAR e TAF).

Le stazioni disponibili sono rappresentate dai dischi gialli e rossi sulla carta.

Puntare il mouse per vedere il nome della stazione.

Clicca sopra per visualizzare le osservazioni e previsioni meteorologiche.

Per cambiare la mappa : fare clic sui pulsanti verdi con una croce nera per ingrandire, il pulsante verde con un trattino per diminuire, o sulla freccia verde per le mappe adiacenti.


METAR-TAF: